Marvel — V7OZ3 — position and weather

sailwx.info

Track history (hours):
 
Tides and Currents Weather Stations Pressure Air Temp Water Temp Dewpoint Dewpoint Depression Visibility Wind Speed Wind Dir Waves Ship Positions

Marvel

Last reported at 2017-May-21 14:01 UTC. Time now 2017-May-23 14:48 UTC.
Position S 00°13' W 051°03'.

Length 182 m; draft 11.1 m.

Type: Tanker. MMSI: 538003191.

Date/timePositionNaut miles runAvg speedWind from/ knotsBaromVisibWave heightAir tempDewpointWater temp
2017-May-21 14:01S 00°13' W 051°03'612.6
2017-May-21 13:30S 00°07' W 051°01'612.1
2017-May-21 13:00S 00°01' W 051°01'3 6.1
2017-May-21 12:30S 00°02' W 051°03'3 5.9
2017-May-21 12:00S 00°04' W 051°06'1 1.7
2017-May-21 11:30S 00°03' W 051°05'3 5.3
2017-May-21 11:00S 00°01' W 051°03'4 7.9
2017-May-21 10:30N 00°02' W 051°01'5 9.9
2017-May-21 10:00N 00°06' W 050°58'510.0
2017-May-21 09:30N 00°09' W 050°54'8 9.6
2017-May-21 08:42N 00°11' W 050°47'2 9.2
2017-May-21 08:30N 00°11' W 050°45'  
Track history (hours):
 
Tides and Currents Weather Stations Pressure Air Temp Water Temp Dewpoint Dewpoint Depression Visibility Wind Speed Wind Dir Waves Ship Positions

Marvel

Last reported at 2017-May-21 14:01 UTC. Time now 2017-May-23 14:48 UTC.
Position S 00°13' W 051°03'.

Length 182 m; draft 11.1 m.

Type: Tanker. MMSI: 538003191.

Date/timePositionNaut miles runAvg speedWind from/ knotsBaromVisibWave heightAir tempDewpointWater temp
2017-May-21 14:01S 00°13' W 051°03'612.6
2017-May-21 13:30S 00°07' W 051°01'612.1
2017-May-21 13:00S 00°01' W 051°01'3 6.1
2017-May-21 12:30S 00°02' W 051°03'3 5.9
2017-May-21 12:00S 00°04' W 051°06'1 1.7
2017-May-21 11:30S 00°03' W 051°05'3 5.3
2017-May-21 11:00S 00°01' W 051°03'4 7.9
2017-May-21 10:30N 00°02' W 051°01'5 9.9
2017-May-21 10:00N 00°06' W 050°58'510.0
2017-May-21 09:30N 00°09' W 050°54'8 9.6
2017-May-21 08:42N 00°11' W 050°47'2 9.2
2017-May-21 08:30N 00°11' W 050°45'  

Dump ship's entire track history